logo
Rechercher aéroport 
image banner adimage banner adimage banner ad
image banner ad

EHG004 - De Voorst

Situé à , Netherlands

ICAO - , IATA -

Données fournies par Airmate  

Information générale

Coordonnées: N52°41'5" E5°54'38"
Élévation : feet MSL.
 
Voir autres Aéroports à Gelderland

Données opérationnelles

Special qualification required
Heure actuelle UTC:
Heure actuelle locale:
Météo à : EHLE - Lelystad/Lelystad ( 37 km )
METAR: EHLE 220655Z AUTO 22011KT 190V250 9999 FEW009/// SCT011/// BKN013/// 16/14 Q1005 NOSIG
TAF: TAF EHLE 220455Z 2206/2312 22014KT 9999 SCT008 BKN012 TEMPO 2206/2211 6000 -RADZ BKN008 BECMG 2209/2212 SCT018 PROB30 TEMPO 2212/2218 7000 -SHRA FEW020TCU PROB40 2302/2308 SCT008 BKN012
Voir NOTAMs / SUP AIP / TFR affectant cet aéroport [VIEW]
Fréquences de communication: [VIEW]

Pistes:

Coordonnées de l'aéroport

Adresse: Netherlands

Vue satellite de EHG004